Time;durP1;ratioP1;P1;durP2;ratioP2;P2;SDS_P1;SDS_P2;PMS_P1;PMS_P2;Temp;Humidity;BMP_temperature;BMP_pressure;BME280_temperature;BME280_humidity;BME280_pressure;Samples;Min_cycle;Max_cycle;Signal;HPM_P1;HPM_P2
2023/01/09 00:01:46;;;;;;;20.40;10.10;;;;;;;-4.33;62.49;100205.34;106629;1255;1003404;-39
2023/01/09 00:04:13;;;;;;;20.70;10.90;;;;;;;-4.30;62.01;100205.46;107373;1258;75334;-39
2023/01/09 00:06:42;;;;;;;22.00;11.50;;;;;;;-4.28;62.13;100204.94;107390;1259;68953;-39
2023/01/09 00:09:09;;;;;;;20.20;10.40;;;;;;;-4.26;62.21;100205.86;107372;1254;75578;-39
2023/01/09 00:11:36;;;;;;;22.10;11.50;;;;;;;-4.27;61.82;100207.39;106648;1254;1003082;-39
2023/01/09 00:14:04;;;;;;;18.90;10.40;;;;;;;-4.29;62.25;100209.15;107356;1259;59570;-39
2023/01/09 00:16:31;;;;;;;24.00;11.50;;;;;;;-4.31;61.86;100206.80;107353;1255;71603;-39
2023/01/09 00:18:59;;;;;;;19.60;10.60;;;;;;;-4.33;61.81;100203.96;107370;1255;69581;-40
2023/01/09 00:21:26;;;;;;;21.30;10.50;;;;;;;-4.35;61.94;100199.38;107198;1254;74035;-40
2023/01/09 00:23:54;;;;;;;24.80;10.10;;;;;;;-4.36;61.97;100198.38;107328;1256;61496;-39
2023/01/09 00:26:21;;;;;;;22.50;11.80;;;;;;;-4.38;61.99;100192.77;106571;1255;1003802;-39
2023/01/09 00:28:49;;;;;;;19.20;10.10;;;;;;;-4.39;62.06;100193.49;107283;1254;74545;-39
2023/01/09 00:31:17;;;;;;;22.10;10.90;;;;;;;-4.39;62.09;100189.31;107270;1260;68824;-40
2023/01/09 00:33:54;;;;;;;21.00;11.30;;;;;;;-4.42;62.31;100180.19;107358;1260;72836;-39
2023/01/09 00:36:21;;;;;;;21.20;10.40;;;;;;;-4.42;62.25;100175.10;107386;1259;61837;-39
2023/01/09 00:38:49;;;;;;;19.60;9.60;;;;;;;-4.39;62.31;100173.23;107331;1259;60583;-39
2023/01/09 00:41:19;;;;;;;18.90;9.60;;;;;;;-4.31;62.11;100174.13;107362;1254;74371;-39
2023/01/09 00:43:49;;;;;;;21.10;10.00;;;;;;;-4.30;61.85;100183.84;107310;1259;70377;-39
2023/01/09 00:46:17;;;;;;;19.90;10.00;;;;;;;-4.29;62.11;100176.93;107411;1258;71135;-39
2023/01/09 00:48:44;;;;;;;25.00;9.70;;;;;;;-4.29;62.15;100174.45;107382;1255;61719;-39
2023/01/09 00:51:11;;;;;;;16.80;8.70;;;;;;;-4.31;62.44;100174.42;107272;1254;60226;-39
2023/01/09 00:53:39;;;;;;;19.90;10.20;;;;;;;-4.32;62.56;100166.39;106636;1259;1003579;-43
2023/01/09 00:56:08;;;;;;;18.90;9.80;;;;;;;-4.33;62.99;100158.91;106529;1262;1003061;-39
2023/01/09 00:58:35;;;;;;;21.20;10.20;;;;;;;-4.35;62.63;100153.17;107303;1257;71607;-39
2023/01/09 01:01:02;;;;;;;21.70;10.90;;;;;;;-4.40;63.61;100146.54;107275;1259;59653;-39
2023/01/09 01:03:30;;;;;;;21.70;9.80;;;;;;;-4.43;64.57;100143.04;107331;1254;62484;-39
2023/01/09 01:08:44;;;;;;;22.60;9.40;;;;;;;-4.37;66.15;100145.51;107384;1254;68701;-39
2023/01/09 01:11:11;;;;;;;18.90;9.70;;;;;;;-4.38;66.92;100143.23;106591;1255;1002922;-39
2023/01/09 01:13:39;;;;;;;19.00;9.60;;;;;;;-4.36;66.81;100143.05;107334;1254;60700;-39
2023/01/09 01:16:08;;;;;;;17.50;10.00;;;;;;;-4.36;66.82;100131.92;107331;1254;60143;-39
2023/01/09 01:18:35;;;;;;;21.20;10.70;;;;;;;-4.35;66.89;100128.06;107327;1254;74231;-40
2023/01/09 01:21:10;;;;;;;21.50;10.60;;;;;;;-4.33;67.18;100130.02;107301;1255;67431;-39
2023/01/09 01:23:38;;;;;;;22.30;11.30;;;;;;;-4.32;67.33;100125.38;107280;1260;72809;-39
2023/01/09 01:26:15;;;;;;;20.30;9.40;;;;;;;-4.36;67.54;100120.05;107221;1258;62895;-39
2023/01/09 01:28:42;;;;;;;16.90;9.30;;;;;;;-4.31;67.68;100122.10;107300;1254;61584;-39
2023/01/09 01:31:15;;;;;;;23.30;9.00;;;;;;;-4.27;67.43;100116.90;107320;1254;74701;-39
2023/01/09 01:33:42;;;;;;;18.70;9.90;;;;;;;-4.30;67.72;100114.44;107331;1254;69148;-39
2023/01/09 01:36:10;;;;;;;22.40;10.70;;;;;;;-4.32;68.20;100108.85;107357;1254;74059;-39
2023/01/09 01:38:37;;;;;;;21.80;10.40;;;;;;;-4.32;68.40;100106.73;107363;1255;60139;-39
2023/01/09 01:41:05;;;;;;;22.80;10.70;;;;;;;-4.33;68.55;100102.27;107260;1254;62654;-39
2023/01/09 01:43:59;;;;;;;18.90;9.80;;;;;;;-4.37;68.54;100099.20;107368;1255;71701;-39
2023/01/09 01:46:27;;;;;;;20.40;9.20;;;;;;;-4.36;68.71;100099.94;107412;1258;69962;-39
2023/01/09 01:49:02;;;;;;;18.00;9.20;;;;;;;-4.29;68.88;100090.37;107423;1255;73941;-39
2023/01/09 01:51:30;;;;;;;16.90;8.70;;;;;;;-4.28;68.79;100085.88;107275;1254;61585;-39
2023/01/09 01:54:00;;;;;;;17.80;9.80;;;;;;;-4.31;69.20;100080.65;107495;1254;62400;-39
2023/01/09 01:56:39;;;;;;;17.30;9.40;;;;;;;-4.35;69.34;100076.26;106630;1254;1003638;-39
2023/01/09 01:59:16;;;;;;;20.40;10.50;;;;;;;-4.39;69.56;100075.62;107396;1254;66734;-39
2023/01/09 02:01:47;;;;;;;19.20;10.20;;;;;;;-4.43;69.62;100062.80;107326;1254;74723;-39
2023/01/09 02:04:15;;;;;;;18.60;9.60;;;;;;;-4.46;69.70;100058.43;107338;1257;63115;-39
2023/01/09 02:06:43;;;;;;;18.50;9.80;;;;;;;-4.44;69.79;100056.06;106572;1254;1003284;-39
2023/01/09 02:09:12;;;;;;;15.80;8.80;;;;;;;-4.42;69.60;100053.98;107393;1254;74446;-39
2023/01/09 02:11:46;;;;;;;20.40;9.40;;;;;;;-4.43;69.79;100054.98;107384;1259;70174;-39
2023/01/09 02:14:14;;;;;;;21.40;10.80;;;;;;;-4.46;69.74;100054.73;107407;1254;71709;-39
2023/01/09 02:17:00;;;;;;;16.90;10.10;;;;;;;-4.46;69.87;100055.98;107526;1254;60777;-39
2023/01/09 02:19:57;;;;;;;20.60;10.00;;;;;;;-4.45;69.69;100055.79;107321;1254;60387;-39
2023/01/09 02:22:44;;;;;;;16.80;9.60;;;;;;;-4.46;69.92;100053.40;107182;1254;73210;-39
2023/01/09 02:25:11;;;;;;;18.30;8.90;;;;;;;-4.48;70.06;100056.92;106564;1260;1003528;-39
2023/01/09 02:28:09;;;;;;;15.30;8.20;;;;;;;-4.43;69.67;100049.52;107294;1254;74625;-39
2023/01/09 02:30:59;;;;;;;17.80;8.90;;;;;;;-4.41;69.52;100041.09;107297;1257;60445;-39
2023/01/09 02:33:46;;;;;;;10.40;6.00;;;;;;;-4.45;69.59;100043.67;107372;1254;60883;-39
2023/01/09 02:36:26;;;;;;;16.00;9.30;;;;;;;-4.48;69.32;100043.63;107297;1254;75111;-39
2023/01/09 02:39:30;;;;;;;;;;;;;;;-4.52;69.54;100041.04;106679;1258;1002833;-39
2023/01/09 02:42:15;;;;;;;15.60;8.80;;;;;;;-4.67;69.52;100040.61;107040;1266;75233;-39
2023/01/09 02:44:43;;;;;;;13.80;7.40;;;;;;;-4.71;69.71;100041.52;107209;1254;63222;-39
2023/01/09 02:47:16;;;;;;;15.00;8.10;;;;;;;-4.58;69.68;100038.77;107468;1254;60920;-39
2023/01/09 02:49:55;;;;;;;17.00;8.30;;;;;;;-4.56;69.53;100039.61;107321;1254;75004;-39
2023/01/09 02:52:43;;;;;;;16.30;8.60;;;;;;;-4.59;69.89;100031.31;107332;1260;69825;-39
2023/01/09 02:55:41;;;;;;;16.80;8.90;;;;;;;-4.60;70.09;100031.08;107303;1254;73732;-39
2023/01/09 02:58:22;;;;;;;18.50;9.00;;;;;;;-4.62;70.21;100025.29;107288;1254;62692;-40
2023/01/09 03:01:17;;;;;;;13.90;7.90;;;;;;;-4.66;70.46;100025.60;107333;1254;59312;-39
2023/01/09 03:04:15;;;;;;;15.90;7.40;;;;;;;-4.63;70.23;100024.54;107283;1254;73702;-39
2023/01/09 03:07:03;;;;;;;13.50;7.50;;;;;;;-4.58;70.19;100029.09;107338;1260;70521;-39
2023/01/09 03:09:32;;;;;;;18.50;8.80;;;;;;;-4.59;70.55;100025.15;107142;1259;74224;-40
2023/01/09 03:12:03;;;;;;;14.30;7.30;;;;;;;-4.60;70.62;100024.79;107426;1254;60915;-39
2023/01/09 03:14:30;;;;;;;16.40;8.20;;;;;;;-4.61;70.82;100018.64;107299;1254;61395;-39
2023/01/09 03:17:01;;;;;;;16.60;8.60;;;;;;;-4.67;70.73;100015.96;107240;1254;75849;-39
2023/01/09 03:19:29;;;;;;;13.60;7.50;;;;;;;-4.73;71.06;100010.59;106596;1254;1003021;-40
2023/01/09 03:21:58;;;;;;;;;;;;;;;-4.71;71.14;100012.41;107072;1255;73453;-39
2023/01/09 03:24:25;;;;;;;14.50;7.20;;;;;;;-4.71;71.13;100008.70;107281;1254;60419;-39
2023/01/09 03:26:55;;;;;;;13.80;7.40;;;;;;;-4.73;71.30;100010.32;107373;1254;61678;-39
2023/01/09 03:29:22;;;;;;;13.80;6.90;;;;;;;-4.72;71.21;99999.34;107354;1255;75180;-39
2023/01/09 03:31:50;;;;;;;13.40;7.00;;;;;;;-4.72;71.41;99991.40;107313;1254;70912;-38
2023/01/09 03:34:17;;;;;;;15.40;8.00;;;;;;;-4.71;71.39;99985.12;106518;1259;1002922;-38
2023/01/09 03:36:44;;;;;;;13.60;7.50;;;;;;;-4.73;71.48;99979.17;107348;1260;62485;-39
2023/01/09 03:39:11;;;;;;;14.60;7.10;;;;;;;-4.66;71.69;99980.36;107301;1254;61412;-39
2023/01/09 03:41:39;;;;;;;14.60;7.50;;;;;;;-4.56;71.66;99983.20;107233;1254;74164;-39
2023/01/09 03:44:06;;;;;;;14.00;6.60;;;;;;;-4.53;71.72;99985.79;107329;1254;66689;-39
2023/01/09 03:46:33;;;;;;;13.50;7.60;;;;;;;-4.52;71.68;99984.38;107373;1260;74364;-39
2023/01/09 03:49:00;;;;;;;13.40;7.40;;;;;;;-4.52;71.63;99989.80;107404;1259;61363;-39
2023/01/09 03:51:27;;;;;;;14.90;7.30;;;;;;;-4.56;71.47;99993.38;107377;1254;62675;-39
2023/01/09 03:53:54;;;;;;;14.40;7.00;;;;;;;-4.70;71.68;99980.11;107169;1254;75979;-39
2023/01/09 03:56:22;;;;;;;14.80;7.30;;;;;;;-4.68;72.02;99987.96;107264;1254;70112;-39
2023/01/09 03:58:51;;;;;;;10.50;6.60;;;;;;;-4.65;71.90;99985.52;107291;1254;73758;-39
2023/01/09 04:01:18;;;;;;;10.90;5.50;;;;;;;-4.63;72.11;99981.36;107336;1254;60428;-39
2023/01/09 04:03:45;;;;;;;14.70;7.20;;;;;;;-4.64;72.42;99976.53;107308;1254;62636;-39
2023/01/09 04:06:12;;;;;;;13.00;7.30;;;;;;;-4.69;72.65;99973.50;106666;1254;1003123;-39
2023/01/09 04:08:39;;;;;;;15.90;7.40;;;;;;;-4.75;73.07;99970.15;107386;1254;69483;-39
2023/01/09 04:11:07;;;;;;;14.50;7.30;;;;;;;-4.80;73.26;99965.79;106655;1259;1002910;-39
2023/01/09 04:13:34;;;;;;;9.70;6.10;;;;;;;-4.78;73.28;99965.51;107365;1254;62413;-40
2023/01/09 04:16:01;;;;;;;12.20;6.30;;;;;;;-4.72;73.35;99961.20;107406;1254;61652;-39
2023/01/09 04:18:29;;;;;;;17.50;7.70;;;;;;;-4.71;73.78;99954.91;107431;1254;74377;-39
2023/01/09 04:20:56;;;;;;;12.90;7.30;;;;;;;-4.70;73.62;99958.84;107438;1254;70548;-39
2023/01/09 04:23:23;;;;;;;9.90;6.40;;;;;;;-4.74;73.69;99957.72;107385;1258;73809;-39
2023/01/09 04:25:50;;;;;;;17.40;7.70;;;;;;;-4.82;73.86;99952.08;107303;1255;60617;-40
2023/01/09 04:28:17;;;;;;;11.10;6.10;;;;;;;-4.81;73.98;99953.35;107333;1256;60329;-39
2023/01/09 04:30:45;;;;;;;14.60;6.60;;;;;;;-4.74;73.90;99949.05;107287;1258;75976;-39
2023/01/09 04:33:12;;;;;;;13.40;6.50;;;;;;;-4.70;73.97;99944.70;107314;1256;69828;-39
2023/01/09 04:35:39;;;;;;;12.60;7.30;;;;;;;-4.70;74.11;99952.44;106545;1255;1003612;-39
2023/01/09 04:38:06;;;;;;;15.50;6.90;;;;;;;-4.68;74.10;99948.97;107276;1256;60403;-39
2023/01/09 04:40:33;;;;;;;14.30;7.00;;;;;;;-4.66;73.94;99946.14;106557;1256;1003029;-39
2023/01/09 04:43:00;;;;;;;14.20;6.90;;;;;;;-4.66;73.82;99941.64;107190;1256;75208;-39
2023/01/09 04:45:27;;;;;;;10.10;6.20;;;;;;;-4.63;73.89;99944.70;107268;1256;70884;-40
2023/01/09 04:47:55;;;;;;;10.60;5.60;;;;;;;-4.54;73.73;99943.39;107291;1260;73410;-41
2023/01/09 04:50:22;;;;;;;15.00;6.80;;;;;;;-4.50;73.44;99952.48;107241;1256;60376;-39
2023/01/09 04:52:49;;;;;;;14.00;8.10;;;;;;;-4.49;73.71;99949.25;106494;1259;1002810;-40
2023/01/09 04:55:16;;;;;;;13.20;7.50;;;;;;;-4.48;73.77;99941.08;107210;1256;75071;-39
2023/01/09 04:57:44;;;;;;;11.90;7.10;;;;;;;-4.47;73.53;99947.38;106486;1256;1003071;-39
2023/01/09 05:00:11;;;;;;;14.60;6.90;;;;;;;-4.49;73.67;99939.73;107260;1255;74033;-39
2023/01/09 05:02:39;;;;;;;14.60;7.10;;;;;;;-4.55;73.60;99936.92;107274;1258;64405;-39
2023/01/09 05:05:07;;;;;;;14.60;7.40;;;;;;;-4.52;73.70;99937.89;107280;1258;60454;-39
2023/01/09 05:07:38;;;;;;;14.50;6.60;;;;;;;-4.44;73.62;99935.88;107365;1257;72732;-39
2023/01/09 05:10:07;;;;;;;12.10;6.30;;;;;;;-4.40;74.04;99933.64;107272;1258;70429;-40
2023/01/09 05:12:35;;;;;;;13.50;6.90;;;;;;;-4.39;73.57;99934.30;107283;1256;73322;-39
2023/01/09 05:15:03;;;;;;;14.70;6.70;;;;;;;-4.43;73.60;99942.67;107348;1256;60358;-39
2023/01/09 05:17:30;;;;;;;12.70;7.20;;;;;;;-4.46;73.83;99951.11;107343;1255;61901;-39
2023/01/09 05:19:59;;;;;;;14.20;7.20;;;;;;;-4.45;73.97;99943.91;107277;1256;74959;-39
2023/01/09 05:22:27;;;;;;;9.20;5.00;;;;;;;-4.40;73.91;99940.43;107240;1254;70737;-39
2023/01/09 05:24:54;;;;;;;13.60;7.00;;;;;;;-4.34;74.00;99936.46;107372;1254;74172;-39
2023/01/09 05:27:21;;;;;;;15.30;7.20;;;;;;;-4.34;74.23;99932.29;107411;1254;60588;-39
2023/01/09 05:29:48;;;;;;;14.20;7.40;;;;;;;-4.34;74.39;99929.16;107421;1254;61770;-40
2023/01/09 05:32:15;;;;;;;12.80;6.90;;;;;;;-4.36;74.25;99930.77;107403;1254;75315;-39
2023/01/09 05:34:42;;;;;;;13.20;7.50;;;;;;;-4.38;74.53;99925.84;106670;1254;1003718;-39
2023/01/09 05:37:09;;;;;;;19.30;7.30;;;;;;;-4.37;74.71;99922.89;107419;1254;73780;-39
2023/01/09 05:39:37;;;;;;;14.30;7.60;;;;;;;-4.30;74.72;99923.13;107399;1254;60444;-40
2023/01/09 05:42:04;;;;;;;12.80;6.90;;;;;;;-4.28;74.75;99920.55;107425;1254;61866;-39
2023/01/09 05:44:31;;;;;;;14.80;8.30;;;;;;;-4.30;74.60;99920.78;107330;1254;76171;-39
2023/01/09 05:46:58;;;;;;;15.80;7.80;;;;;;;-4.33;74.62;99916.06;107272;1259;70547;-39
2023/01/09 05:49:28;;;;;;;13.40;7.90;;;;;;;-4.35;74.81;99915.39;106534;1259;1003629;-39
2023/01/09 05:51:55;;;;;;;13.20;7.20;;;;;;;-4.39;74.89;99908.45;107296;1254;63817;-39
2023/01/09 05:54:22;;;;;;;12.10;6.90;;;;;;;-4.36;74.95;99904.21;106569;1254;1002959;-39
2023/01/09 05:56:50;;;;;;;11.60;7.60;;;;;;;-4.30;75.24;99899.20;107438;1254;75266;-39
2023/01/09 05:59:17;;;;;;;16.20;7.40;;;;;;;-4.29;75.30;99895.82;107335;1255;70485;-39
2023/01/09 06:01:44;;;;;;;13.20;7.60;;;;;;;-4.34;75.23;99891.63;106551;1254;1003053;-39
2023/01/09 06:04:11;;;;;;;17.20;8.00;;;;;;;-4.35;75.56;99895.11;107424;1254;61686;-39
2023/01/09 06:06:39;;;;;;;11.80;6.70;;;;;;;-4.36;75.95;99889.17;107399;1254;60434;-39
2023/01/09 06:09:07;;;;;;;13.20;7.40;;;;;;;-4.31;75.81;99890.44;107406;1255;72667;-39
2023/01/09 06:11:34;;;;;;;13.10;7.00;;;;;;;-4.28;75.73;99894.61;107417;1254;67702;-39
2023/01/09 06:14:01;;;;;;;17.70;8.50;;;;;;;-4.26;75.91;99897.54;107422;1254;74995;-39
2023/01/09 06:16:29;;;;;;;13.20;8.30;;;;;;;-4.27;75.91;99894.14;107456;1254;60546;-39
2023/01/09 06:18:56;;;;;;;12.90;7.90;;;;;;;-4.29;75.87;99894.11;107428;1254;60816;-39
2023/01/09 06:21:23;;;;;;;11.60;6.90;;;;;;;-4.27;75.66;99902.34;107397;1253;75738;-39
2023/01/09 06:23:50;;;;;;;13.10;6.90;;;;;;;-4.20;75.87;99909.73;107479;1253;69844;-39
2023/01/09 06:26:17;;;;;;;13.60;7.50;;;;;;;-4.16;75.73;99909.45;106677;1254;1003418;-39
2023/01/09 06:28:44;;;;;;;14.40;7.50;;;;;;;-4.17;75.84;99907.33;107313;1256;61476;-39
2023/01/09 06:31:12;;;;;;;18.00;8.70;;;;;;;-4.18;75.79;99904.50;106611;1253;1002986;-39
2023/01/09 06:33:40;;;;;;;15.20;7.90;;;;;;;-4.18;75.93;99908.02;106659;1254;1003822;-39
2023/01/09 06:36:07;;;;;;;12.40;6.90;;;;;;;-4.14;75.75;99903.44;106570;1253;1003088;-39
2023/01/09 06:38:34;;;;;;;16.70;7.60;;;;;;;-4.06;75.67;99896.53;107413;1253;74207;-39
2023/01/09 06:41:01;;;;;;;12.30;7.30;;;;;;;-4.01;75.88;99899.95;107415;1254;60575;-39
2023/01/09 06:43:28;;;;;;;13.50;7.60;;;;;;;-4.01;75.82;99894.40;107316;1259;60293;-39
2023/01/09 06:45:56;;;;;;;13.50;7.50;;;;;;;-4.01;75.85;99897.95;107334;1253;75051;-39
2023/01/09 06:48:23;;;;;;;16.20;7.60;;;;;;;-4.03;75.53;99897.25;107300;1254;69962;-39
2023/01/09 06:50:51;;;;;;;11.90;7.40;;;;;;;-4.01;75.71;99896.84;107281;1253;73276;-39
2023/01/09 06:53:19;;;;;;;14.70;7.90;;;;;;;-3.94;75.63;99897.91;107294;1260;60787;-39
2023/01/09 06:55:46;;;;;;;14.50;7.90;;;;;;;-3.91;75.75;99890.05;107350;1253;61452;-39
2023/01/09 06:58:13;;;;;;;16.40;8.40;;;;;;;-3.88;75.83;99897.59;107461;1253;75471;-39
2023/01/09 07:00:40;;;;;;;14.50;8.10;;;;;;;-3.86;75.86;99896.29;107475;1253;67752;-39
2023/01/09 07:03:08;;;;;;;15.20;7.90;;;;;;;-3.84;75.87;99895.50;107352;1255;71712;-39
2023/01/09 07:05:41;;;;;;;15.30;7.50;;;;;;;-3.80;75.71;99896.86;107426;1259;63344;-39
2023/01/09 07:08:09;;;;;;;15.60;7.40;;;;;;;-3.74;75.50;99895.27;107377;1260;60817;-39
2023/01/09 07:10:36;;;;;;;13.30;7.80;;;;;;;-3.70;75.43;99900.50;107445;1253;75791;-40
2023/01/09 07:13:03;;;;;;;13.60;7.50;;;;;;;-3.70;75.39;99896.85;107458;1253;68124;-38
2023/01/09 07:15:30;;;;;;;14.60;7.90;;;;;;;-3.71;75.43;99896.79;107452;1254;74330;-39
2023/01/09 07:17:58;;;;;;;15.90;8.60;;;;;;;-3.69;75.53;99898.91;107449;1253;60390;-39
2023/01/09 07:20:25;;;;;;;13.90;8.00;;;;;;;-3.69;75.32;99901.19;107520;1253;60325;-40
2023/01/09 07:22:53;;;;;;;12.10;7.20;;;;;;;-3.62;75.34;99900.88;107338;1254;76167;-39
2023/01/09 07:25:20;;;;;;;13.60;7.10;;;;;;;-3.53;75.06;99904.61;107336;1254;70174;-39
2023/01/09 07:27:47;;;;;;;16.60;8.10;;;;;;;-3.53;74.93;99899.09;107335;1256;74185;-40
2023/01/09 07:30:15;;;;;;;15.80;8.20;;;;;;;-3.52;75.07;99899.73;107397;1254;61717;-40
2023/01/09 07:32:42;;;;;;;13.40;8.50;;;;;;;-3.54;75.09;99900.27;107340;1254;62634;-39
2023/01/09 07:35:09;;;;;;;16.30;8.50;;;;;;;-3.56;75.41;99900.60;107315;1254;75014;-39
2023/01/09 07:37:37;;;;;;;13.40;7.30;;;;;;;-3.59;75.54;99898.57;107238;1254;70013;-40
2023/01/09 07:40:05;;;;;;;13.20;7.40;;;;;;;-3.54;75.55;99897.71;107257;1256;72768;-40
2023/01/09 07:42:32;;;;;;;13.70;7.30;;;;;;;-3.47;75.75;99894.32;107425;1254;60485;-40
2023/01/09 07:44:59;;;;;;;13.90;8.40;;;;;;;-3.52;75.71;99883.41;107438;1254;61532;-39
2023/01/09 07:47:26;;;;;;;14.20;7.90;;;;;;;-3.45;75.70;99893.23;107384;1254;75181;-39
2023/01/09 10:48:49;;;;;;;9.10;5.70;;;;;;;-1.76;83.59;99718.45;105134;1282;611727;-39
2023/01/09 10:51:21;;;;;;;8.20;5.40;;;;;;;-1.34;81.46;99714.91;106828;1258;174719;-39
2023/01/09 10:53:53;;;;;;;8.60;5.10;;;;;;;-1.46;81.41;99709.36;107016;1263;60101;-40
2023/01/09 10:56:29;;;;;;;6.50;4.50;;;;;;;-1.48;80.98;99711.77;107087;1257;74740;-39
2023/01/09 10:58:56;;;;;;;5.90;4.20;;;;;;;-1.50;80.61;99709.40;107048;1257;70949;-39
2023/01/09 11:01:28;;;;;;;7.80;4.70;;;;;;;-1.52;80.64;99712.64;106993;1260;73123;-40
2023/01/09 11:03:57;;;;;;;8.80;5.50;;;;;;;-1.56;80.50;99714.95;106894;1260;60829;-40
2023/01/09 11:06:40;;;;;;;7.40;4.90;;;;;;;-1.59;80.59;99712.29;107005;1258;60959;-39
2023/01/09 11:09:07;;;;;;;6.50;4.30;;;;;;;-1.56;80.28;99709.20;107081;1259;72848;-39
2023/01/09 11:11:36;;;;;;;6.40;4.10;;;;;;;-1.55;79.92;99706.15;107034;1259;67961;-39
2023/01/09 11:14:14;;;;;;;8.40;5.00;;;;;;;-1.57;79.99;99700.32;107084;1259;74017;-40
2023/01/09 11:16:54;;;;;;;7.20;5.00;;;;;;;-1.61;80.38;99701.23;107074;1259;59747;-40
2023/01/09 11:19:22;;;;;;;9.70;5.00;;;;;;;-1.66;80.44;99697.69;107048;1263;62002;-40
2023/01/09 11:21:49;;;;;;;7.20;4.10;;;;;;;-1.69;80.44;99694.52;107044;1257;74417;-40
2023/01/09 11:24:20;;;;;;;7.90;4.60;;;;;;;-1.66;80.37;99687.42;107069;1259;69869;-40
2023/01/09 11:26:52;;;;;;;7.30;5.00;;;;;;;-1.65;80.32;99687.21;107073;1258;73917;-39
2023/01/09 11:29:22;;;;;;;7.10;4.90;;;;;;;-1.66;80.34;99685.95;107118;1260;59814;-40
2023/01/09 11:31:57;;;;;;;7.80;5.00;;;;;;;-1.70;80.49;99690.11;107078;1257;60226;-39
2023/01/09 11:34:33;;;;;;;8.50;4.70;;;;;;;-1.73;80.74;99684.38;107087;1258;74534;-39
2023/01/09 11:37:03;;;;;;;7.40;4.70;;;;;;;-1.67;80.88;99684.30;107027;1259;67551;-40
2023/01/09 11:39:31;;;;;;;9.30;4.70;;;;;;;-1.58;80.64;99681.14;107103;1262;71303;-39
2023/01/09 11:42:01;;;;;;;5.90;4.10;;;;;;;-1.56;80.69;99683.52;107112;1257;59720;-40
2023/01/09 11:44:28;;;;;;;7.10;3.60;;;;;;;-1.58;80.64;99677.30;107086;1257;62429;-39
2023/01/09 11:46:55;;;;;;;8.30;4.90;;;;;;;-1.60;80.71;99675.82;107177;1259;74259;-40
2023/01/09 11:49:28;;;;;;;7.10;4.50;;;;;;;-1.60;80.83;99666.63;106949;1259;69701;-40
2023/01/09 11:52:19;;;;;;;7.30;4.90;;;;;;;-1.53;80.75;99666.11;107145;1259;73549;-39
2023/01/09 11:55:03;;;;;;;7.00;4.70;;;;;;;-1.49;80.76;99668.38;107052;1258;60184;-39
2023/01/09 11:57:30;;;;;;;6.80;4.60;;;;;;;-1.53;80.86;99659.89;107073;1259;61104;-40
2023/01/09 12:00:00;;;;;;;8.70;5.00;;;;;;;-1.55;80.90;99661.17;107051;1259;74353;-39
2023/01/09 12:03:10;;;;;;;7.80;4.50;;;;;;;-1.59;81.16;99664.70;107026;1258;67271;-40
2023/01/09 12:05:44;;;;;;;6.50;4.30;;;;;;;-1.57;81.30;99665.12;106877;1262;74998;-39
2023/01/09 12:08:32;;;;;;;7.50;4.90;;;;;;;-1.56;81.24;99661.45;107048;1259;60344;-39
2023/01/09 12:11:05;;;;;;;8.80;4.90;;;;;;;-1.56;81.36;99666.29;107086;1259;59533;-40
2023/01/09 12:13:59;;;;;;;6.50;4.70;;;;;;;-1.57;81.67;99663.16;107064;1259;74739;-40
2023/01/09 12:16:40;;;;;;;6.90;5.30;;;;;;;-1.54;81.66;99662.03;107040;1259;70062;-39
2023/01/09 12:19:20;;;;;;;7.80;5.00;;;;;;;-1.47;81.46;99663.33;107050;1259;73018;-39
2023/01/09 12:22:11;;;;;;;6.60;4.90;;;;;;;-1.49;81.57;99662.33;107028;1259;60028;-39
2023/01/09 12:24:52;;;;;;;9.40;5.30;;;;;;;-1.47;81.70;99657.54;107060;1263;60467;-40
2023/01/09 12:27:29;;;;;;;8.90;5.00;;;;;;;-1.46;81.77;99659.81;107049;1259;74335;-40
2023/01/09 12:30:26;;;;;;;9.10;5.10;;;;;;;-1.44;81.73;99663.05;107068;1259;69977;-39
2023/01/09 12:32:57;;;;;;;9.50;5.50;;;;;;;-1.40;81.66;99660.37;107061;1259;73807;-40
2023/01/09 12:35:44;;;;;;;9.50;5.50;;;;;;;-1.43;81.96;99672.77;107078;1259;60324;-39
2023/01/09 12:38:36;;;;;;;9.40;5.30;;;;;;;-1.45;82.00;99664.80;107061;1259;59530;-39
2023/01/09 12:41:26;;;;;;;9.20;5.10;;;;;;;-1.42;82.13;99663.67;107075;1259;74293;-39
2023/01/09 12:44:12;;;;;;;;;;;;;;;-1.33;82.01;99663.91;107089;1258;69853;-39
2023/01/09 12:46:55;;;;;;;10.90;5.50;;;;;;;-1.38;82.09;99667.86;107023;1257;74366;-40
2023/01/09 12:49:36;;;;;;;9.50;5.60;;;;;;;-1.41;82.52;99665.27;107070;1257;61012;-40
2023/01/09 12:52:16;;;;;;;11.00;6.10;;;;;;;-1.42;82.45;99668.20;107085;1258;61412;-39
2023/01/09 12:54:48;;;;;;;8.50;5.40;;;;;;;-1.41;82.37;99668.09;107024;1257;74082;-40
2023/01/09 12:57:21;;;;;;;10.30;5.50;;;;;;;-1.33;82.23;99665.92;107073;1260;70394;-39
2023/01/09 12:59:50;;;;;;;8.90;5.60;;;;;;;-1.29;82.26;99668.34;107125;1262;71729;-39
2023/01/09 13:02:17;;;;;;;10.70;6.20;;;;;;;-1.27;82.30;99667.44;107119;1259;61170;-40
2023/01/09 13:05:08;;;;;;;10.50;6.60;;;;;;;-1.27;82.41;99664.56;107080;1257;61059;-40
2023/01/09 13:07:41;;;;;;;9.30;5.50;;;;;;;-1.26;82.28;99670.40;107065;1259;74309;-39
2023/01/09 13:10:25;;;;;;;9.60;5.60;;;;;;;-1.21;82.12;99669.90;107199;1260;69974;-39
2023/01/09 13:12:53;;;;;;;9.70;6.40;;;;;;;-1.20;82.24;99669.25;107100;1259;75142;-39
2023/01/09 13:15:41;;;;;;;10.90;6.30;;;;;;;-1.23;82.35;99676.93;107042;1262;60601;-40
2023/01/09 13:18:26;;;;;;;9.80;5.60;;;;;;;-1.23;82.38;99678.64;106597;1253;1003627;-40
2023/01/09 13:20:57;;;;;;;8.70;5.60;;;;;;;-1.20;82.26;99680.86;107404;1258;73449;-40
2023/01/09 13:23:40;;;;;;;10.30;6.00;;;;;;;-1.15;82.18;99682.10;107377;1259;70093;-40
2023/01/09 13:26:15;;;;;;;10.00;5.60;;;;;;;-1.12;82.30;99679.54;107356;1257;73032;-40
2023/01/09 13:28:45;;;;;;;9.70;6.20;;;;;;;-1.14;82.37;99682.58;107450;1254;60377;-40
2023/01/09 13:31:20;;;;;;;9.90;5.60;;;;;;;-1.17;82.55;99685.69;107372;1253;61953;-40
2023/01/09 13:33:53;;;;;;;9.20;5.10;;;;;;;-1.12;82.40;99685.07;107386;1253;73987;-40
2023/01/09 13:36:25;;;;;;;9.50;5.50;;;;;;;-1.09;82.13;99685.37;107374;1258;70172;-40
2023/01/09 13:38:54;;;;;;;9.40;5.60;;;;;;;-1.09;82.43;99686.48;107399;1253;72555;-40
2023/01/09 13:44:28;;;;;;;10.20;5.60;;;;;;;-1.15;82.45;99678.23;107435;1259;62018;-40
2023/01/09 13:46:57;;;;;;;11.50;6.10;;;;;;;-1.10;82.45;99679.37;107312;1253;75283;-40
2023/01/09 13:49:43;;;;;;;7.80;4.60;;;;;;;-1.07;82.59;99687.43;107367;1253;71074;-40
2023/01/09 13:52:41;;;;;;;11.20;6.40;;;;;;;-1.08;82.54;99683.14;106628;1254;1003386;-40
2023/01/09 13:55:15;;;;;;;10.50;6.00;;;;;;;-1.09;82.82;99680.37;106575;1253;1003539;-40
2023/01/09 13:57:43;;;;;;;10.70;5.60;;;;;;;-1.05;82.57;99676.03;107390;1253;61472;-40
2023/01/09 14:00:16;;;;;;;10.40;6.00;;;;;;;-1.00;82.52;99678.04;107418;1253;73492;-40
2023/01/09 14:02:45;;;;;;;9.10;6.10;;;;;;;-0.99;82.49;99676.33;107400;1254;68274;-40
2023/01/09 14:05:14;;;;;;;10.90;6.50;;;;;;;-1.00;82.64;99682.13;106671;1254;1003347;-41
2023/01/09 14:07:41;;;;;;;9.50;5.60;;;;;;;-1.00;82.63;99686.70;107384;1257;62580;-40
2023/01/09 14:10:22;;;;;;;9.80;5.50;;;;;;;-0.95;82.43;99687.21;107387;1255;60604;-40
2023/01/09 14:12:50;;;;;;;10.70;5.60;;;;;;;-0.90;82.31;99691.27;107391;1253;75006;-40
2023/01/09 14:15:30;;;;;;;10.20;6.30;;;;;;;-0.89;82.37;99687.48;107556;1258;70519;-41
2023/01/09 14:18:01;;;;;;;10.90;6.00;;;;;;;-0.88;82.33;99699.36;107365;1253;74858;-40
2023/01/09 14:20:40;;;;;;;10.50;5.60;;;;;;;-0.88;82.40;99705.15;106637;1256;1002651;-40
2023/01/09 14:23:07;;;;;;;11.30;5.90;;;;;;;-0.82;82.31;99707.61;107365;1255;61947;-40
2023/01/09 14:25:54;;;;;;;8.40;5.60;;;;;;;-0.70;82.01;99708.60;107305;1253;75125;-40
2023/01/09 14:28:23;;;;;;;13.40;6.20;;;;;;;-0.67;82.15;99702.09;107527;1254;67878;-40
2023/01/09 14:30:53;;;;;;;12.50;6.50;;;;;;;-0.65;82.11;99704.16;107440;1259;74201;-40
2023/01/09 14:33:21;;;;;;;13.10;6.30;;;;;;;-0.64;81.94;99701.70;107342;1256;60951;-40
2023/01/09 14:36:07;;;;;;;9.30;5.70;;;;;;;-0.65;81.86;99706.55;107372;1255;59795;-40
2023/01/09 14:38:57;;;;;;;9.50;5.90;;;;;;;-0.62;81.64;99710.52;107349;1253;75576;-40
2023/01/09 14:44:26;;;;;;;12.40;6.50;;;;;;;-0.67;81.95;99696.39;107349;1256;74616;-40